Terminal Aerodrome Forecast
Issued by NWS

Home | Current Version | Previous Version | Text Only | Print | Product List | Glossary On
Versions: 1 2 3 4 5 6 7 8 9 10 11 12 13 14 15 16 17 18 19 20 21 22 23 24 25 26 27 28 29
000
FTUS41 KGYX 311100
TAFRKD
TAF
KRKD 311122Z 3112/0112 19004KT 1/4SM FG BKN002
     FM311400 17006KT 6SM BR SCT007 SCT100
     FM312100 20006KT P6SM BKN250
     FM010000 21003KT 2SM BR SCT002
     FM010200 21003KT 1/4SM FG VV002
      AMD LTD TO CLD VIS AND WIND=

USA.gov is the U.S. government's official web portal to all federal, state and local government web resources and services.